createdAt,value
2022-10-09T00:02:06.329Z,6.10
2022-10-09T00:05:08.649Z,5.53
2022-10-09T00:08:10.674Z,5.70
2022-10-09T00:11:15.865Z,5.73
2022-10-09T00:14:17.895Z,5.70
2022-10-09T00:17:19.820Z,5.43
2022-10-09T00:20:21.687Z,5.00
2022-10-09T00:23:24.579Z,5.60
2022-10-09T00:26:26.971Z,5.70
2022-10-09T00:29:28.970Z,5.27
2022-10-09T00:32:30.912Z,5.43
2022-10-09T00:35:32.804Z,5.47
2022-10-09T00:38:35.223Z,4.30
2022-10-09T00:41:37.216Z,4.73
2022-10-09T00:45:00.615Z,4.87
2022-10-09T00:48:07.460Z,5.40
2022-10-09T00:51:10.125Z,4.83
2022-10-09T00:54:15.930Z,4.47
2022-10-09T00:57:18.013Z,4.47
2022-10-09T01:00:20.071Z,4.50
2022-10-09T01:03:21.973Z,4.97
2022-10-09T01:06:26.542Z,4.40
2022-10-09T01:09:50.747Z,4.30
2022-10-09T01:13:07.780Z,4.17
2022-10-09T01:16:20.330Z,4.20
2022-10-09T01:19:55.020Z,4.17
2022-10-09T01:23:34.082Z,3.90
2022-10-09T01:26:52.017Z,3.97
2022-10-09T01:30:01.977Z,4.40
2022-10-09T01:33:05.690Z,4.43
2022-10-09T01:36:08.751Z,4.27
2022-10-09T01:39:19.897Z,4.47
2022-10-09T01:42:25.843Z,4.80
2022-10-09T01:45:38.939Z,4.30
2022-10-09T01:48:41.318Z,5.40
2022-10-09T01:51:58.194Z,3.77
2022-10-09T01:55:13.272Z,4.00
2022-10-09T01:58:35.328Z,3.90
2022-10-09T02:01:40.213Z,3.87
2022-10-09T02:04:43.854Z,3.80
2022-10-09T02:07:45.900Z,3.33
2022-10-09T02:10:53.366Z,3.10
2022-10-09T02:13:56.272Z,4.07
2022-10-09T02:17:17.245Z,5.07
2022-10-09T02:20:28.422Z,3.30
2022-10-09T02:23:31.932Z,3.70
2022-10-09T02:26:34.043Z,3.23
2022-10-09T02:29:40.200Z,3.30
2022-10-09T02:32:42.474Z,3.67
2022-10-09T02:35:45.485Z,3.17
2022-10-09T02:38:47.469Z,2.83
2022-10-09T02:41:49.392Z,3.30
2022-10-09T02:44:51.238Z,3.17
2022-10-09T02:47:53.338Z,3.67
2022-10-09T02:50:55.223Z,3.10
2022-10-09T02:53:57.284Z,3.20
2022-10-09T02:56:59.209Z,3.10
2022-10-09T03:00:01.040Z,2.90
2022-10-09T03:03:02.976Z,2.70
2022-10-09T03:06:19.330Z,2.50
2022-10-09T03:09:21.280Z,2.57
2022-10-09T03:12:23.216Z,1.90
2022-10-09T03:15:25.393Z,2.70
2022-10-09T03:18:27.205Z,2.50
2022-10-09T03:21:29.197Z,2.40
2022-10-09T03:24:31.058Z,2.63
2022-10-09T03:27:33.296Z,2.40
2022-10-09T03:30:35.239Z,2.53
2022-10-09T03:33:37.520Z,2.60
2022-10-09T03:36:39.410Z,2.47
2022-10-09T03:39:41.347Z,2.40
2022-10-09T03:42:43.263Z,2.30
2022-10-09T03:45:45.240Z,2.60
2022-10-09T03:48:47.202Z,2.60
2022-10-09T03:51:49.106Z,2.60
2022-10-09T03:54:51.016Z,2.43
2022-10-09T03:57:52.971Z,2.77
2022-10-09T04:00:55.188Z,2.73
2022-10-09T04:03:57.237Z,2.87
2022-10-09T04:06:59.131Z,2.70
2022-10-09T04:10:01.056Z,2.43
2022-10-09T04:13:02.998Z,2.47
2022-10-09T04:16:05.405Z,2.60
2022-10-09T04:19:07.342Z,2.00
2022-10-09T04:22:09.255Z,2.57
2022-10-09T04:25:11.233Z,2.43
2022-10-09T04:28:13.499Z,2.63
2022-10-09T04:31:15.454Z,3.17
2022-10-09T04:34:17.404Z,2.93
2022-10-09T04:37:19.371Z,2.90
2022-10-09T04:40:21.345Z,2.83
2022-10-09T04:43:23.381Z,2.77
2022-10-09T04:46:25.414Z,2.67
2022-10-09T04:49:27.314Z,2.97
2022-10-09T04:52:29.693Z,3.07
2022-10-09T04:55:31.735Z,3.23
2022-10-09T04:58:36.606Z,2.83
2022-10-09T05:01:39.628Z,2.60
2022-10-09T05:04:41.571Z,2.43
2022-10-09T05:07:43.533Z,2.43
2022-10-09T05:10:45.470Z,2.33
2022-10-09T05:13:49.930Z,2.37
2022-10-09T05:17:12.903Z,2.37
2022-10-09T05:20:17.059Z,2.33
2022-10-09T05:23:19.177Z,2.50
2022-10-09T05:26:22.929Z,2.50
2022-10-09T05:29:25.014Z,3.00
2022-10-09T05:32:27.048Z,2.53
2022-10-09T05:35:28.983Z,2.40
2022-10-09T05:38:33.853Z,2.30
2022-10-09T05:41:35.805Z,2.50
2022-10-09T05:44:37.788Z,2.60
2022-10-09T05:47:39.691Z,2.33
2022-10-09T05:50:42.268Z,2.43
2022-10-09T05:53:45.947Z,2.60
2022-10-09T05:56:48.165Z,2.60
2022-10-09T05:59:50.019Z,2.43
2022-10-09T06:02:52.589Z,2.40
2022-10-09T06:06:02.182Z,2.37
2022-10-09T06:09:05.346Z,2.70
2022-10-09T06:12:07.945Z,2.50
2022-10-09T06:15:12.429Z,2.47
2022-10-09T06:18:18.007Z,2.60
2022-10-09T06:21:20.225Z,2.70
2022-10-09T06:24:29.057Z,2.50
2022-10-09T06:27:31.799Z,2.50
2022-10-09T06:30:38.418Z,2.50
2022-10-09T06:33:43.645Z,2.70
2022-10-09T06:36:45.667Z,2.70
2022-10-09T06:39:48.427Z,2.40
2022-10-09T06:42:50.954Z,2.03
2022-10-09T06:45:53.908Z,2.27
2022-10-09T06:48:56.519Z,1.90
2022-10-09T06:51:58.553Z,2.63
2022-10-09T06:55:00.503Z,2.20
2022-10-09T06:58:02.481Z,2.03
2022-10-09T07:01:08.804Z,2.30
2022-10-09T07:04:13.630Z,2.10
2022-10-09T07:07:15.578Z,2.17
2022-10-09T07:10:20.572Z,2.00
2022-10-09T07:13:24.794Z,2.17
2022-10-09T07:16:32.662Z,2.17
2022-10-09T07:19:34.595Z,1.77
2022-10-09T07:22:36.516Z,2.13
2022-10-09T07:25:38.813Z,2.20
2022-10-09T07:28:41.512Z,1.80
2022-10-09T07:31:44.160Z,1.73
2022-10-09T07:34:46.065Z,1.43
2022-10-09T07:37:47.947Z,2.13
2022-10-09T07:40:50.146Z,1.90
2022-10-09T07:43:52.136Z,1.93
2022-10-09T07:46:54.417Z,2.20
2022-10-09T07:49:56.468Z,1.60
2022-10-09T07:52:58.387Z,1.83
2022-10-09T07:56:00.262Z,2.00
2022-10-09T07:59:04.711Z,1.93
2022-10-09T08:02:06.720Z,1.73
2022-10-09T08:05:09.230Z,1.70
2022-10-09T08:08:11.117Z,1.80
2022-10-09T08:11:15.611Z,1.80
2022-10-09T08:14:19.586Z,1.33
2022-10-09T08:17:21.735Z,1.67
2022-10-09T08:20:23.738Z,1.83
2022-10-09T08:23:26.189Z,1.53
2022-10-09T08:26:30.458Z,1.70
2022-10-09T08:29:35.541Z,1.70
2022-10-09T08:32:41.202Z,1.17
2022-10-09T08:35:43.258Z,1.93
2022-10-09T08:38:47.826Z,1.20
2022-10-09T08:41:53.049Z,1.60
2022-10-09T08:44:55.556Z,1.30
2022-10-09T08:48:08.863Z,1.60
2022-10-09T08:51:21.060Z,1.57
2022-10-09T08:54:34.836Z,1.47
2022-10-09T08:57:37.102Z,1.30
2022-10-09T09:00:45.885Z,1.40
2022-10-09T09:03:50.804Z,1.30
2022-10-09T09:07:20.433Z,1.43
2022-10-09T09:10:49.176Z,1.33
2022-10-09T09:14:22.611Z,1.30
2022-10-09T09:17:59.736Z,1.63
2022-10-09T09:21:28.690Z,1.67
2022-10-09T09:24:48.734Z,1.40
2022-10-09T09:27:54.859Z,1.40
2022-10-09T09:31:02.574Z,1.47
2022-10-09T09:34:14.882Z,1.50
2022-10-09T09:37:17.417Z,1.30
2022-10-09T09:40:37.966Z,1.60
2022-10-09T09:43:41.027Z,1.50
2022-10-09T09:46:46.510Z,1.30
2022-10-09T09:50:00.489Z,1.27
2022-10-09T09:53:14.106Z,1.47
2022-10-09T09:56:17.646Z,1.10
2022-10-09T09:59:35.855Z,1.30
2022-10-09T10:02:37.928Z,1.10
2022-10-09T10:05:41.036Z,1.30
2022-10-09T10:08:46.277Z,1.33
2022-10-09T10:11:55.095Z,1.50
2022-10-09T10:14:57.182Z,1.43
2022-10-09T10:18:01.875Z,1.20
2022-10-09T10:21:15.129Z,1.60
2022-10-09T10:24:23.207Z,1.30
2022-10-09T10:27:31.934Z,1.00
2022-10-09T10:30:37.975Z,1.00
2022-10-09T10:33:43.108Z,1.20
2022-10-09T10:37:02.475Z,1.33
2022-10-09T10:40:23.241Z,0.90
2022-10-09T10:43:40.358Z,1.07
2022-10-09T10:46:49.128Z,1.07
2022-10-09T10:49:51.413Z,1.13
2022-10-09T10:53:03.033Z,1.20
2022-10-09T10:56:35.477Z,1.00
2022-10-09T10:59:39.958Z,1.10
2022-10-09T11:03:12.865Z,1.00
2022-10-09T11:06:29.138Z,1.10
2022-10-09T11:09:44.565Z,0.90
2022-10-09T11:13:01.578Z,1.20
2022-10-09T11:16:22.621Z,1.07
2022-10-09T11:19:57.767Z,0.80
2022-10-09T11:23:07.543Z,1.00
2022-10-09T11:26:38.389Z,1.17
2022-10-09T11:29:47.569Z,1.03
2022-10-09T11:32:56.246Z,0.90
2022-10-09T11:36:12.238Z,1.13
2022-10-09T11:39:22.413Z,0.77
2022-10-09T11:42:26.586Z,1.13
2022-10-09T11:45:47.666Z,0.90
2022-10-09T11:49:14.059Z,0.90
2022-10-09T11:52:46.832Z,0.90
2022-10-09T11:55:48.931Z,0.90
2022-10-09T11:59:02.270Z,0.90
2022-10-09T12:02:26.250Z,1.03
2022-10-09T12:05:41.431Z,1.30
2022-10-09T12:08:54.720Z,1.17
2022-10-09T12:12:07.621Z,1.00
2022-10-09T12:15:40.555Z,0.93
2022-10-09T12:18:47.520Z,1.30
2022-10-09T12:22:07.861Z,1.23
2022-10-09T12:25:38.677Z,1.23
2022-10-09T12:28:56.570Z,1.17
2022-10-09T12:32:05.043Z,1.37
2022-10-09T12:35:23.159Z,1.33
2022-10-09T12:38:28.257Z,1.27
2022-10-09T12:41:34.345Z,1.63
2022-10-09T12:44:42.215Z,1.20
2022-10-09T12:47:44.423Z,1.10
2022-10-09T12:50:46.370Z,0.90
2022-10-09T12:53:50.945Z,1.43
2022-10-09T12:56:55.660Z,1.33
2022-10-09T12:59:58.423Z,1.20
2022-10-09T13:03:01.577Z,1.10
2022-10-09T13:06:07.406Z,1.53
2022-10-09T13:09:21.627Z,1.00
2022-10-09T13:12:26.886Z,1.37
2022-10-09T13:15:36.145Z,1.10
2022-10-09T13:18:38.538Z,1.47
2022-10-09T13:21:40.542Z,1.40
2022-10-09T13:24:42.510Z,1.10
2022-10-09T13:27:44.640Z,0.97
2022-10-09T13:30:46.802Z,1.30
2022-10-09T13:33:49.283Z,1.47
2022-10-09T13:36:51.521Z,1.60
2022-10-09T13:39:55.101Z,1.30
2022-10-09T13:43:01.294Z,1.40
2022-10-09T13:46:03.367Z,1.33
2022-10-09T13:49:05.405Z,1.03
2022-10-09T13:52:07.634Z,1.90
2022-10-09T13:55:10.244Z,1.20
2022-10-09T13:58:12.277Z,1.40
2022-10-09T14:01:14.232Z,1.53
2022-10-09T14:04:16.360Z,1.50
2022-10-09T14:07:18.301Z,1.40
2022-10-09T14:10:23.876Z,1.30
2022-10-09T14:13:26.251Z,1.20
2022-10-09T14:16:29.350Z,1.70
2022-10-09T14:19:31.619Z,1.30
2022-10-09T14:22:33.544Z,1.07
2022-10-09T14:25:35.601Z,1.40
2022-10-09T14:28:37.627Z,1.20
2022-10-09T14:31:39.727Z,1.20
2022-10-09T14:34:41.600Z,1.00
2022-10-09T14:37:43.579Z,1.20
2022-10-09T14:40:46.179Z,0.83
2022-10-09T14:43:56.234Z,1.00
2022-10-09T14:46:59.260Z,1.40
2022-10-09T14:50:01.292Z,1.37
2022-10-09T14:53:03.726Z,1.10
2022-10-09T14:56:08.438Z,1.63
2022-10-09T14:59:10.345Z,1.43
2022-10-09T15:02:16.459Z,1.60
2022-10-09T15:05:18.448Z,1.30
2022-10-09T15:08:20.425Z,1.30
2022-10-09T15:11:22.961Z,1.37
2022-10-09T15:14:24.819Z,1.03
2022-10-09T15:17:26.739Z,1.10
2022-10-09T15:20:28.598Z,1.20
2022-10-09T15:23:31.631Z,1.50
2022-10-09T15:26:38.509Z,1.53
2022-10-09T15:29:40.535Z,1.20
2022-10-09T15:32:42.374Z,1.17
2022-10-09T15:35:44.340Z,1.07
2022-10-09T15:38:46.709Z,1.07
2022-10-09T15:41:48.751Z,1.10
2022-10-09T15:44:50.692Z,1.43
2022-10-09T15:47:53.160Z,1.10
2022-10-09T15:50:55.070Z,1.07
2022-10-09T15:54:00.206Z,1.40
2022-10-09T15:57:02.078Z,1.10
2022-10-09T16:00:04.900Z,1.20
2022-10-09T16:03:07.607Z,1.20
2022-10-09T16:06:11.705Z,1.00
2022-10-09T16:09:14.108Z,1.10
2022-10-09T16:12:15.971Z,1.40
2022-10-09T16:15:18.046Z,1.10
2022-10-09T16:18:22.224Z,1.00
2022-10-09T16:21:27.779Z,1.10
2022-10-09T16:24:31.577Z,1.30
2022-10-09T16:27:33.793Z,1.20
2022-10-09T16:30:45.320Z,1.20
2022-10-09T16:33:47.338Z,1.33
2022-10-09T16:36:49.316Z,1.40
2022-10-09T16:39:51.270Z,1.30
2022-10-09T16:42:53.400Z,1.13
2022-10-09T16:45:55.419Z,1.13
2022-10-09T16:48:59.108Z,1.27
2022-10-09T16:52:01.157Z,1.30
2022-10-09T16:55:04.191Z,1.50
2022-10-09T16:58:06.208Z,1.27
2022-10-09T17:01:10.336Z,1.40
2022-10-09T17:04:13.953Z,2.87
2022-10-09T17:07:16.212Z,1.80
2022-10-09T17:10:18.537Z,1.50
2022-10-09T17:13:21.068Z,1.40
2022-10-09T17:16:25.439Z,1.30
2022-10-09T17:19:28.482Z,1.67
2022-10-09T17:22:30.392Z,1.33
2022-10-09T17:25:33.767Z,1.50
2022-10-09T17:28:36.278Z,1.53
2022-10-09T17:31:38.684Z,1.77
2022-10-09T17:34:46.154Z,1.20
2022-10-09T17:37:48.187Z,1.40
2022-10-09T17:40:51.059Z,1.60
2022-10-09T17:43:55.037Z,1.40
2022-10-09T17:46:57.461Z,1.33
2022-10-09T17:49:59.914Z,1.90
2022-10-09T17:53:02.455Z,1.67
2022-10-09T17:56:04.777Z,1.40
2022-10-09T17:59:07.855Z,1.40
2022-10-09T18:02:10.912Z,1.30
2022-10-09T18:05:13.440Z,1.50
2022-10-09T18:08:17.997Z,1.30
2022-10-09T18:11:23.050Z,1.60
2022-10-09T18:14:25.325Z,1.43
2022-10-09T18:17:31.109Z,1.47
2022-10-09T18:20:41.520Z,1.70
2022-10-09T18:23:46.340Z,2.00
2022-10-09T18:26:48.764Z,1.43
2022-10-09T18:29:53.560Z,1.67
2022-10-09T18:32:58.678Z,1.50
2022-10-09T18:36:18.360Z,1.47
2022-10-09T18:39:21.977Z,1.50
2022-10-09T18:42:24.424Z,1.30
2022-10-09T18:45:27.195Z,1.37
2022-10-09T18:48:34.591Z,1.50
2022-10-09T18:51:41.076Z,1.30
2022-10-09T18:54:48.167Z,1.00
2022-10-09T18:57:50.644Z,1.20
2022-10-09T19:00:53.255Z,1.03
2022-10-09T19:03:55.370Z,1.17
2022-10-09T19:06:57.644Z,1.27
2022-10-09T19:09:59.832Z,1.27
2022-10-09T19:13:02.372Z,1.57
2022-10-09T19:16:08.307Z,1.30
2022-10-09T19:19:10.464Z,1.50
2022-10-09T19:22:16.400Z,1.03
2022-10-09T19:25:19.460Z,1.00
2022-10-09T19:28:23.611Z,1.10
2022-10-09T19:31:26.405Z,1.30
2022-10-09T19:34:29.591Z,1.40
2022-10-09T19:37:31.976Z,1.03
2022-10-09T19:40:35.243Z,1.03
2022-10-09T19:43:37.759Z,1.23
2022-10-09T19:46:40.230Z,1.00
2022-10-09T19:49:42.475Z,1.23
2022-10-09T19:52:47.337Z,1.20
2022-10-09T19:55:49.882Z,0.90
2022-10-09T19:58:52.853Z,1.23
2022-10-09T20:01:57.540Z,1.30
2022-10-09T20:05:00.339Z,1.10
2022-10-09T20:08:02.425Z,1.10
2022-10-09T20:11:06.005Z,1.83
2022-10-09T20:14:09.578Z,0.90
2022-10-09T20:17:11.809Z,1.00
2022-10-09T20:20:14.060Z,1.10
2022-10-09T20:23:15.987Z,1.13
2022-10-09T20:26:19.961Z,0.90
2022-10-09T20:29:21.955Z,1.10
2022-10-09T20:32:25.605Z,1.10
2022-10-09T20:35:27.638Z,1.20
2022-10-09T20:38:29.764Z,0.90
2022-10-09T20:41:32.904Z,1.10
2022-10-09T20:44:34.845Z,1.17
2022-10-09T20:47:36.701Z,1.17
2022-10-09T20:50:40.051Z,1.10
2022-10-09T20:53:42.295Z,1.03
2022-10-09T20:56:47.271Z,1.50
2022-10-09T20:59:49.196Z,1.20
2022-10-09T21:02:51.244Z,1.40
2022-10-09T21:05:53.500Z,1.33
2022-10-09T21:08:55.524Z,1.30
2022-10-09T21:11:57.508Z,1.23
2022-10-09T21:14:59.450Z,1.40
2022-10-09T21:18:01.372Z,1.10
2022-10-09T21:21:09.168Z,1.60
2022-10-09T21:24:11.213Z,1.33
2022-10-09T21:27:13.066Z,1.13
2022-10-09T21:30:15.035Z,1.13
2022-10-09T21:33:17.758Z,1.00
2022-10-09T21:36:35.826Z,1.10
2022-10-09T21:39:37.722Z,1.40
2022-10-09T21:42:39.555Z,1.20
2022-10-09T21:45:41.972Z,1.40
2022-10-09T21:48:43.917Z,1.33
2022-10-09T21:51:45.975Z,0.97
2022-10-09T21:54:47.888Z,1.30
2022-10-09T21:57:49.975Z,1.30
2022-10-09T22:01:00.890Z,1.33
2022-10-09T22:04:02.987Z,1.30
2022-10-09T22:07:04.923Z,1.40
2022-10-09T22:10:07.691Z,1.40
2022-10-09T22:13:09.745Z,1.43
2022-10-09T22:16:14.470Z,1.20
2022-10-09T22:19:16.497Z,1.40
2022-10-09T22:22:18.496Z,2.00
2022-10-09T22:25:20.433Z,1.60
2022-10-09T22:28:22.363Z,1.50
2022-10-09T22:31:26.452Z,1.63
2022-10-09T22:34:28.347Z,1.30
2022-10-09T22:37:30.604Z,1.60
2022-10-09T22:40:32.522Z,1.30
2022-10-09T22:43:34.591Z,1.60
2022-10-09T22:46:44.527Z,1.70
2022-10-09T22:49:46.568Z,1.73
2022-10-09T22:52:50.431Z,1.53
2022-10-09T22:55:52.711Z,1.40
2022-10-09T22:58:54.772Z,1.77
2022-10-09T23:01:57.754Z,1.50
2022-10-09T23:04:59.688Z,1.10
2022-10-09T23:08:01.648Z,1.20
2022-10-09T23:11:03.561Z,1.50
2022-10-09T23:14:06.086Z,1.40
2022-10-09T23:17:08.013Z,1.03
2022-10-09T23:20:10.660Z,1.37
2022-10-09T23:23:12.597Z,1.57
2022-10-09T23:26:17.780Z,1.20
2022-10-09T23:29:20.925Z,1.20
2022-10-09T23:32:22.788Z,1.50
2022-10-09T23:35:24.697Z,1.40
2022-10-09T23:38:26.597Z,1.57
2022-10-09T23:41:29.191Z,1.37
2022-10-09T23:44:31.121Z,1.53
2022-10-09T23:47:33.032Z,1.60
2022-10-09T23:50:34.999Z,1.30
2022-10-09T23:53:37.036Z,1.53
2022-10-09T23:56:38.972Z,1.50
2022-10-09T23:59:41.777Z,1.40
